createdAt,value
2022-10-17T00:02:44.540Z,11.56
2022-10-17T00:05:47.714Z,11.54
2022-10-17T00:08:49.279Z,11.53
2022-10-17T00:11:50.871Z,11.48
2022-10-17T00:14:52.422Z,11.48
2022-10-17T00:17:53.993Z,11.47
2022-10-17T00:20:55.560Z,11.44
2022-10-17T00:23:57.363Z,11.40
2022-10-17T00:26:58.946Z,11.39
2022-10-17T00:30:00.643Z,11.37
2022-10-17T00:33:02.270Z,11.33
2022-10-17T00:36:08.542Z,11.31
2022-10-17T00:39:10.149Z,11.29
2022-10-17T00:42:14.858Z,11.28
2022-10-17T00:45:24.721Z,11.27
2022-10-17T00:48:26.405Z,11.25
2022-10-17T00:51:34.063Z,11.23
2022-10-17T00:54:50.866Z,11.21
2022-10-17T00:57:52.858Z,11.20
2022-10-17T01:00:54.420Z,11.17
2022-10-17T01:03:55.989Z,11.11
2022-10-17T01:06:57.598Z,11.14
2022-10-17T01:09:59.390Z,11.12
2022-10-17T01:13:18.323Z,11.09
2022-10-17T01:16:40.575Z,11.06
2022-10-17T01:20:01.121Z,11.03
2022-10-17T01:23:24.928Z,10.94
2022-10-17T01:27:04.542Z,10.98
2022-10-17T01:30:10.118Z,10.90
2022-10-17T01:33:35.148Z,10.91
2022-10-17T01:36:57.192Z,10.90
2022-10-17T01:40:10.674Z,10.87
2022-10-17T01:43:24.902Z,10.80
2022-10-17T01:46:35.484Z,10.81
2022-10-17T01:49:40.862Z,10.76
2022-10-17T01:52:58.021Z,10.72
2022-10-17T01:56:05.245Z,10.71
2022-10-17T01:59:18.600Z,10.68
2022-10-17T02:02:21.513Z,10.61
2022-10-17T02:05:30.723Z,10.61
2022-10-17T02:08:50.276Z,10.56
2022-10-17T02:12:30.572Z,10.51
2022-10-17T02:16:00.211Z,10.48
2022-10-17T02:19:29.966Z,10.43
2022-10-17T02:22:52.994Z,10.38
2022-10-17T02:26:06.624Z,10.33
2022-10-17T02:29:21.171Z,10.31
2022-10-17T02:32:36.122Z,10.28
2022-10-17T02:35:43.124Z,10.26
2022-10-17T02:38:45.963Z,10.23
2022-10-17T02:41:50.933Z,10.24
2022-10-17T02:44:55.077Z,10.23
2022-10-17T02:48:05.126Z,10.25
2022-10-17T02:51:18.984Z,10.25
2022-10-17T02:54:28.198Z,10.25
2022-10-17T02:57:46.218Z,10.21
2022-10-17T03:00:50.380Z,10.21
2022-10-17T03:03:52.066Z,10.18
2022-10-17T03:06:53.633Z,10.15
2022-10-17T03:09:55.218Z,10.18
2022-10-17T03:12:57.351Z,10.15
2022-10-17T03:16:00.150Z,10.14
2022-10-17T03:19:02.038Z,10.06
2022-10-17T03:22:03.814Z,10.10
2022-10-17T03:25:07.746Z,10.07
2022-10-17T03:28:12.098Z,10.05
2022-10-17T03:31:17.054Z,10.04
2022-10-17T03:34:19.771Z,9.97
2022-10-17T03:37:21.415Z,9.97
2022-10-17T03:40:24.747Z,9.93
2022-10-17T03:43:27.300Z,9.93
2022-10-17T03:46:29.048Z,9.90
2022-10-17T03:49:33.180Z,9.91
2022-10-17T03:52:34.823Z,9.83
2022-10-17T03:55:38.599Z,9.86
2022-10-17T03:58:40.792Z,9.83
2022-10-17T04:01:43.403Z,9.78
2022-10-17T04:04:45.592Z,9.77
2022-10-17T04:07:47.171Z,9.75
2022-10-17T04:10:50.597Z,9.73
2022-10-17T04:13:54.502Z,9.69
2022-10-17T04:16:57.781Z,9.67
2022-10-17T04:20:00.627Z,9.64
2022-10-17T04:23:02.598Z,9.63
2022-10-17T04:26:05.175Z,9.62
2022-10-17T04:29:06.848Z,9.60
2022-10-17T04:32:08.644Z,9.59
2022-10-17T04:35:23.564Z,9.59
2022-10-17T04:38:33.852Z,9.57
2022-10-17T04:41:35.526Z,9.52
2022-10-17T04:44:37.739Z,9.53
2022-10-17T04:47:39.713Z,9.53
2022-10-17T04:50:41.951Z,9.53
2022-10-17T04:54:03.948Z,9.51
2022-10-17T04:57:05.618Z,9.51
2022-10-17T05:03:48.977Z,9.47
2022-10-17T05:06:51.235Z,9.44
2022-10-17T05:10:15.501Z,9.40
2022-10-17T05:13:19.936Z,9.38
2022-10-17T05:16:22.715Z,9.36
2022-10-17T05:19:24.782Z,9.33
2022-10-17T05:22:26.918Z,9.22
2022-10-17T05:25:31.296Z,9.26
2022-10-17T05:28:34.172Z,9.27
2022-10-17T05:31:36.203Z,9.21
2022-10-17T05:34:38.729Z,9.19
2022-10-17T05:37:40.652Z,9.21
2022-10-17T05:40:42.805Z,9.19
2022-10-17T05:43:45.280Z,9.18
2022-10-17T05:46:51.096Z,9.12
2022-10-17T05:49:52.807Z,9.17
2022-10-17T05:53:02.500Z,9.13
2022-10-17T05:56:08.074Z,9.09
2022-10-17T05:59:10.771Z,9.15
2022-10-17T06:02:28.824Z,9.14
2022-10-17T06:05:30.882Z,9.14
2022-10-17T06:08:32.951Z,9.14
2022-10-17T06:11:36.120Z,9.15
2022-10-17T06:14:37.667Z,9.16
2022-10-17T06:17:40.955Z,9.17
2022-10-17T06:20:45.365Z,9.16
2022-10-17T06:23:49.100Z,9.21
2022-10-17T06:26:57.091Z,9.24
2022-10-17T06:29:59.387Z,9.27
2022-10-17T06:33:04.118Z,9.28
2022-10-17T06:36:07.346Z,9.30
2022-10-17T06:39:10.204Z,9.24
2022-10-17T06:42:25.257Z,9.38
2022-10-17T06:45:41.980Z,9.41
2022-10-17T06:48:52.040Z,9.37
2022-10-17T06:52:04.219Z,9.53
2022-10-17T06:55:21.487Z,9.58
2022-10-17T06:58:49.447Z,9.66
2022-10-17T07:02:05.433Z,9.74
2022-10-17T07:05:07.832Z,9.78
2022-10-17T07:08:09.775Z,9.82
2022-10-17T07:11:18.182Z,9.89
2022-10-17T07:14:19.889Z,9.94
2022-10-17T07:17:25.498Z,9.99
2022-10-17T07:20:27.727Z,10.04
2022-10-17T07:23:29.818Z,10.13
2022-10-17T07:26:34.032Z,10.21
2022-10-17T07:29:36.279Z,10.27
2022-10-17T07:32:44.729Z,10.32
2022-10-17T07:35:46.308Z,10.36
2022-10-17T07:38:47.966Z,10.35
2022-10-17T07:41:50.724Z,10.50
2022-10-17T07:44:53.198Z,10.62
2022-10-17T07:47:57.365Z,10.71
2022-10-17T07:51:02.692Z,10.81
2022-10-17T07:54:06.204Z,10.88
2022-10-17T07:57:09.083Z,10.92
2022-10-17T08:00:11.169Z,11.04
2022-10-17T08:03:16.127Z,11.13
2022-10-17T08:06:18.358Z,11.22
2022-10-17T08:09:20.031Z,11.33
2022-10-17T08:12:22.010Z,11.41
2022-10-17T08:15:27.996Z,11.53
2022-10-17T08:18:33.049Z,11.66
2022-10-17T08:21:35.535Z,11.76
2022-10-17T08:24:37.217Z,11.87
2022-10-17T08:27:38.767Z,11.99
2022-10-17T08:30:40.546Z,12.07
2022-10-17T08:33:42.367Z,12.16
2022-10-17T08:36:43.977Z,12.24
2022-10-17T08:39:45.595Z,12.29
2022-10-17T08:42:47.090Z,12.44
2022-10-17T08:46:03.060Z,12.59
2022-10-17T08:49:14.276Z,12.70
2022-10-17T08:52:24.736Z,12.84
2022-10-17T08:55:37.020Z,12.97
2022-10-17T08:58:40.528Z,13.11
2022-10-17T09:02:21.565Z,13.26
2022-10-17T09:05:59.684Z,13.41
2022-10-17T09:09:31.018Z,13.54
2022-10-17T09:13:02.794Z,13.67
2022-10-17T09:16:18.937Z,13.84
2022-10-17T09:19:29.142Z,13.96
2022-10-17T09:22:37.560Z,14.13
2022-10-17T09:25:48.930Z,14.24
2022-10-17T09:28:54.300Z,14.30
2022-10-17T09:32:04.676Z,14.51
2022-10-17T09:35:13.284Z,14.67
2022-10-17T09:38:18.254Z,14.83
2022-10-17T09:41:45.349Z,15.00
2022-10-17T09:44:59.083Z,15.13
2022-10-17T09:48:38.515Z,15.30
2022-10-17T09:51:40.823Z,15.40
2022-10-17T09:54:49.591Z,15.54
2022-10-17T09:58:00.312Z,15.65
2022-10-17T10:01:22.904Z,15.71
2022-10-17T10:04:30.309Z,15.84
2022-10-17T10:07:38.853Z,15.91
2022-10-17T10:10:43.911Z,16.04
2022-10-17T10:13:48.236Z,16.17
2022-10-17T10:16:53.626Z,16.25
2022-10-17T10:19:55.550Z,16.33
2022-10-17T10:23:18.514Z,16.44
2022-10-17T10:26:32.229Z,16.48
2022-10-17T10:29:38.215Z,16.54
2022-10-17T10:32:40.217Z,16.66
2022-10-17T10:35:41.882Z,16.72
2022-10-17T10:38:53.532Z,16.79
2022-10-17T10:41:55.891Z,16.88
2022-10-17T10:45:29.277Z,16.96
2022-10-17T10:48:37.308Z,17.08
2022-10-17T10:51:44.234Z,17.17
2022-10-17T10:55:00.799Z,17.29
2022-10-17T10:58:25.028Z,17.40
2022-10-17T11:01:51.685Z,17.49
2022-10-17T11:05:02.996Z,17.59
2022-10-17T11:08:13.828Z,17.68
2022-10-17T11:11:27.551Z,17.75
2022-10-17T11:14:29.027Z,17.86
2022-10-17T11:17:34.793Z,17.94
2022-10-17T11:20:55.534Z,18.15
2022-10-17T11:24:12.035Z,18.19
2022-10-17T11:27:13.619Z,18.37
2022-10-17T11:30:16.719Z,18.41
2022-10-17T11:33:27.223Z,18.46
2022-10-17T11:36:34.705Z,18.61
2022-10-17T11:39:57.010Z,18.73
2022-10-17T11:43:13.103Z,18.80
2022-10-17T11:46:25.029Z,18.85
2022-10-17T11:49:41.036Z,18.91
2022-10-17T11:52:56.300Z,18.97
2022-10-17T11:56:00.739Z,19.01
2022-10-17T11:59:24.545Z,19.05
2022-10-17T12:02:35.589Z,19.14
2022-10-17T12:06:03.685Z,19.24
2022-10-17T12:09:15.295Z,19.29
2022-10-17T12:12:28.987Z,19.38
2022-10-17T12:15:31.456Z,19.43
2022-10-17T12:18:33.106Z,19.51
2022-10-17T12:21:55.036Z,19.61
2022-10-17T12:25:02.422Z,19.71
2022-10-17T12:28:14.043Z,19.81
2022-10-17T12:31:33.657Z,19.89
2022-10-17T12:34:36.310Z,19.98
2022-10-17T12:37:55.154Z,20.02
2022-10-17T12:40:59.302Z,20.07
2022-10-17T12:44:00.857Z,20.11
2022-10-17T12:47:05.142Z,20.17
2022-10-17T12:50:45.228Z,20.19
2022-10-17T12:53:47.243Z,20.20
2022-10-17T12:56:49.959Z,20.24
2022-10-17T12:59:56.639Z,20.30
2022-10-17T13:03:06.712Z,20.32
2022-10-17T13:06:19.436Z,20.34
2022-10-17T13:09:29.017Z,20.36
2022-10-17T13:12:38.920Z,20.36
2022-10-17T13:15:50.214Z,20.34
2022-10-17T13:18:53.450Z,20.33
2022-10-17T13:22:06.864Z,20.33
2022-10-17T13:25:20.456Z,20.32
2022-10-17T13:28:21.997Z,20.32
2022-10-17T13:31:35.183Z,20.28
2022-10-17T13:34:37.385Z,20.26
2022-10-17T13:37:43.658Z,20.29
2022-10-17T13:40:49.910Z,20.28
2022-10-17T13:43:53.026Z,20.28
2022-10-17T13:46:55.022Z,20.32
2022-10-17T13:49:58.407Z,20.31
2022-10-17T13:53:07.332Z,20.30
2022-10-17T13:56:29.238Z,20.31
2022-10-17T13:59:39.938Z,20.31
2022-10-17T14:02:41.959Z,20.31
2022-10-17T14:06:04.203Z,20.28
2022-10-17T14:09:21.341Z,20.28
2022-10-17T14:12:23.115Z,20.28
2022-10-17T14:15:28.113Z,20.28
2022-10-17T14:18:37.270Z,20.29
2022-10-17T14:21:44.267Z,20.30
2022-10-17T14:24:47.072Z,20.30
2022-10-17T14:28:03.484Z,20.31
2022-10-17T14:31:15.325Z,20.30
2022-10-17T14:34:23.873Z,20.31
2022-10-17T14:37:32.281Z,20.34
2022-10-17T14:40:35.156Z,20.36
2022-10-17T14:43:36.907Z,20.37
2022-10-17T14:46:48.426Z,20.40
2022-10-17T14:50:03.563Z,20.40
2022-10-17T14:53:10.951Z,20.40
2022-10-17T14:56:24.509Z,20.41
2022-10-17T14:59:52.009Z,20.43
2022-10-17T15:02:49.411Z,20.55
2022-10-17T15:05:52.230Z,20.69
2022-10-17T15:08:53.784Z,20.76
2022-10-17T15:11:59.720Z,20.79
2022-10-17T15:15:01.304Z,20.79
2022-10-17T15:18:02.942Z,20.77
2022-10-17T15:21:25.645Z,20.72
2022-10-17T15:24:28.128Z,20.65
2022-10-17T15:27:31.727Z,20.55
2022-10-17T15:30:36.388Z,20.46
2022-10-17T15:33:38.119Z,20.36
2022-10-17T15:41:38.011Z,20.01
2022-10-17T15:44:44.332Z,19.96
2022-10-17T15:51:59.498Z,19.75
2022-10-17T16:17:47.765Z,18.68
2022-10-17T16:20:49.510Z,18.52
2022-10-17T16:23:55.904Z,18.41
2022-10-17T16:30:38.260Z,18.12
2022-10-17T16:33:39.821Z,17.98
2022-10-17T16:36:44.885Z,17.87
2022-10-17T16:40:18.720Z,17.73
2022-10-17T16:54:00.199Z,17.15
2022-10-17T16:57:03.589Z,17.04
2022-10-17T17:03:42.431Z,16.72
2022-10-17T17:09:50.539Z,16.54
2022-10-17T17:12:52.117Z,16.45
2022-10-17T17:16:02.799Z,16.32
2022-10-17T17:19:07.037Z,16.24
2022-10-17T17:22:08.576Z,16.11
2022-10-17T17:25:10.129Z,15.97
2022-10-17T17:28:14.262Z,15.96
2022-10-17T17:31:24.718Z,15.82
2022-10-17T17:34:26.392Z,15.80
2022-10-17T17:37:28.203Z,15.75
2022-10-17T17:40:29.980Z,15.67
2022-10-17T17:43:31.551Z,15.60
2022-10-17T17:46:33.292Z,15.52
2022-10-17T17:49:34.884Z,15.47
2022-10-17T17:52:36.628Z,15.41
2022-10-17T17:55:38.205Z,15.36
2022-10-17T17:58:43.272Z,15.27
2022-10-17T18:01:44.920Z,15.19
2022-10-17T18:04:46.490Z,15.14
2022-10-17T18:07:48.668Z,15.08
2022-10-17T18:10:54.420Z,15.02
2022-10-17T18:13:57.947Z,14.94
2022-10-17T18:16:59.471Z,14.87
2022-10-17T18:20:02.295Z,14.82
2022-10-17T18:23:04.321Z,14.75
2022-10-17T18:26:07.008Z,14.68
2022-10-17T18:29:08.690Z,14.60
2022-10-17T18:32:10.245Z,14.57
2022-10-17T18:35:11.804Z,14.52
2022-10-17T18:38:13.542Z,14.46
2022-10-17T18:41:20.205Z,14.42
2022-10-17T18:44:22.035Z,14.35
2022-10-17T18:47:23.566Z,14.30
2022-10-17T18:50:25.258Z,14.25
2022-10-17T18:53:27.088Z,14.21
2022-10-17T18:56:29.467Z,14.16
2022-10-17T18:59:31.091Z,14.09
2022-10-17T19:02:35.571Z,14.05
2022-10-17T19:05:40.824Z,14.01
2022-10-17T19:08:43.406Z,13.99
2022-10-17T19:11:45.012Z,13.94
2022-10-17T19:14:49.313Z,13.89
2022-10-17T19:17:50.890Z,13.86
2022-10-17T19:20:53.055Z,13.83
2022-10-17T19:23:58.028Z,13.77
2022-10-17T19:27:02.695Z,13.76
2022-10-17T19:30:04.639Z,13.71
2022-10-17T19:33:06.175Z,13.65
2022-10-17T19:36:10.465Z,13.62
2022-10-17T19:39:15.470Z,13.56
2022-10-17T19:43:01.462Z,13.54
2022-10-17T19:46:18.037Z,13.40
2022-10-17T19:49:20.245Z,13.39
2022-10-17T19:52:21.882Z,13.41
2022-10-17T19:55:23.648Z,13.36
2022-10-17T19:58:26.521Z,13.27
2022-10-17T20:01:30.554Z,13.25
2022-10-17T20:04:32.363Z,13.21
2022-10-17T20:07:34.158Z,13.19
2022-10-17T20:10:35.979Z,13.16
2022-10-17T20:13:38.272Z,13.20
2022-10-17T20:16:40.002Z,13.15
2022-10-17T20:19:42.089Z,13.08
2022-10-17T20:22:43.803Z,13.15
2022-10-17T20:25:45.864Z,13.12
2022-10-17T20:28:48.697Z,13.03
2022-10-17T20:31:51.024Z,13.01
2022-10-17T20:34:57.592Z,12.98
2022-10-17T20:37:59.257Z,12.96
2022-10-17T20:41:15.308Z,12.93
2022-10-17T20:44:17.103Z,12.88
2022-10-17T20:47:40.002Z,12.86
2022-10-17T20:50:41.332Z,12.88
2022-10-17T20:53:42.980Z,12.89
2022-10-17T20:56:44.614Z,12.80
2022-10-17T20:59:46.314Z,12.74
2022-10-17T21:02:47.924Z,12.72
2022-10-17T21:05:49.725Z,12.75
2022-10-17T21:08:54.222Z,12.71
2022-10-17T21:11:56.840Z,12.64
2022-10-17T21:14:59.573Z,12.62
2022-10-17T21:21:34.243Z,12.53
2022-10-17T21:24:36.049Z,12.52
2022-10-17T21:27:37.866Z,12.44
2022-10-17T21:30:39.515Z,12.39
2022-10-17T21:33:43.356Z,12.46
2022-10-17T21:36:45.314Z,12.40
2022-10-17T21:39:46.972Z,12.28
2022-10-17T21:42:48.573Z,12.28
2022-10-17T21:45:50.273Z,12.30
2022-10-17T21:48:52.288Z,12.21
2022-10-17T21:51:54.065Z,12.19
2022-10-17T21:54:55.769Z,12.24
2022-10-17T21:57:57.364Z,12.11
2022-10-17T22:01:18.938Z,12.17
2022-10-17T22:04:20.749Z,12.06
2022-10-17T22:07:22.519Z,11.99
2022-10-17T22:10:24.182Z,12.00
2022-10-17T22:13:25.871Z,12.06
2022-10-17T22:16:28.399Z,11.96
2022-10-17T22:19:30.014Z,11.97
2022-10-17T22:22:31.703Z,11.88
2022-10-17T22:25:33.349Z,11.85
2022-10-17T22:28:36.120Z,11.87
2022-10-17T22:31:38.742Z,11.81
2022-10-17T22:34:40.397Z,11.77
2022-10-17T22:37:42.060Z,11.75
2022-10-17T22:40:45.337Z,11.71
2022-10-17T22:43:46.995Z,11.69
2022-10-17T22:46:48.856Z,11.72
2022-10-17T22:49:53.707Z,11.69
2022-10-17T22:52:55.494Z,11.66
2022-10-17T22:56:01.034Z,11.65
2022-10-17T22:59:02.666Z,11.67
2022-10-17T23:02:04.409Z,11.62
2022-10-17T23:05:07.600Z,11.59
2022-10-17T23:08:09.588Z,11.57
2022-10-17T23:11:11.698Z,11.54
2022-10-17T23:14:13.418Z,11.61
2022-10-17T23:17:15.183Z,11.56
2022-10-17T23:20:16.956Z,11.57
2022-10-17T23:23:19.738Z,11.51
2022-10-17T23:26:21.380Z,11.47
2022-10-17T23:29:23.920Z,11.51
2022-10-17T23:32:25.682Z,11.48
2022-10-17T23:35:27.307Z,11.41
2022-10-17T23:38:28.895Z,11.43
2022-10-17T23:41:30.551Z,11.45
2022-10-17T23:44:32.233Z,11.35
2022-10-17T23:47:34.028Z,11.33
2022-10-17T23:50:35.736Z,11.33
2022-10-17T23:53:38.351Z,11.31
2022-10-17T23:56:39.993Z,11.31
2022-10-17T23:59:41.862Z,11.25
